sensor_id;sensor_type;location;lat;lon;timestamp;P1;durP1;ratioP1;P2;durP2;ratioP2
21036;SDS011;10677;50.942;4.028;2023-04-03T00:01:07;28.85;;;20.30;;
21036;SDS011;10677;50.942;4.028;2023-04-03T00:03:32;28.50;;;19.45;;
21036;SDS011;10677;50.942;4.028;2023-04-03T00:05:59;31.60;;;19.83;;
21036;SDS011;10677;50.942;4.028;2023-04-03T00:08:25;27.40;;;19.25;;
21036;SDS011;10677;50.942;4.028;2023-04-03T00:10:50;34.33;;;20.73;;
21036;SDS011;10677;50.942;4.028;2023-04-03T00:13:16;28.95;;;18.52;;
21036;SDS011;10677;50.942;4.028;2023-04-03T00:15:42;29.67;;;19.73;;
21036;SDS011;10677;50.942;4.028;2023-04-03T00:18:08;31.02;;;19.75;;
21036;SDS011;10677;50.942;4.028;2023-04-03T00:20:34;31.10;;;19.00;;
21036;SDS011;10677;50.942;4.028;2023-04-03T00:23:00;29.00;;;18.67;;
21036;SDS011;10677;50.942;4.028;2023-04-03T00:25:26;27.83;;;19.48;;
21036;SDS011;10677;50.942;4.028;2023-04-03T00:27:52;32.83;;;19.95;;
21036;SDS011;10677;50.942;4.028;2023-04-03T00:30:19;31.23;;;20.15;;
21036;SDS011;10677;50.942;4.028;2023-04-03T00:32:49;29.90;;;19.00;;
21036;SDS011;10677;50.942;4.028;2023-04-03T00:35:16;32.78;;;18.42;;
21036;SDS011;10677;50.942;4.028;2023-04-03T00:37:43;30.25;;;18.25;;
21036;SDS011;10677;50.942;4.028;2023-04-03T00:40:10;29.48;;;18.10;;
21036;SDS011;10677;50.942;4.028;2023-04-03T00:42:39;27.58;;;17.92;;
21036;SDS011;10677;50.942;4.028;2023-04-03T00:47:31;27.48;;;18.85;;
21036;SDS011;10677;50.942;4.028;2023-04-03T00:49:57;29.88;;;18.80;;
21036;SDS011;10677;50.942;4.028;2023-04-03T00:52:25;31.17;;;17.65;;
21036;SDS011;10677;50.942;4.028;2023-04-03T00:54:57;31.55;;;18.90;;
21036;SDS011;10677;50.942;4.028;2023-04-03T00:57:26;26.30;;;16.50;;
21036;SDS011;10677;50.942;4.028;2023-04-03T00:59:54;24.50;;;18.17;;
21036;SDS011;10677;50.942;4.028;2023-04-03T01:02:22;28.35;;;17.88;;
21036;SDS011;10677;50.942;4.028;2023-04-03T01:04:48;26.48;;;16.75;;
21036;SDS011;10677;50.942;4.028;2023-04-03T01:07:21;27.35;;;17.58;;
21036;SDS011;10677;50.942;4.028;2023-04-03T01:09:51;26.45;;;16.85;;
21036;SDS011;10677;50.942;4.028;2023-04-03T01:12:26;26.08;;;15.93;;
21036;SDS011;10677;50.942;4.028;2023-04-03T01:15:01;27.13;;;17.23;;
21036;SDS011;10677;50.942;4.028;2023-04-03T01:28:31;24.48;;;15.90;;
21036;SDS011;10677;50.942;4.028;2023-04-03T01:31:05;24.45;;;15.20;;
21036;SDS011;10677;50.942;4.028;2023-04-03T01:33:31;24.27;;;15.38;;
21036;SDS011;10677;50.942;4.028;2023-04-03T01:35:57;25.20;;;14.98;;
21036;SDS011;10677;50.942;4.028;2023-04-03T01:38:23;23.95;;;15.82;;
21036;SDS011;10677;50.942;4.028;2023-04-03T01:40:49;24.35;;;14.63;;
21036;SDS011;10677;50.942;4.028;2023-04-03T01:43:15;25.67;;;15.45;;
21036;SDS011;10677;50.942;4.028;2023-04-03T01:45:41;28.77;;;15.63;;
21036;SDS011;10677;50.942;4.028;2023-04-03T01:48:06;27.88;;;15.90;;
21036;SDS011;10677;50.942;4.028;2023-04-03T01:50:32;24.02;;;14.77;;
21036;SDS011;10677;50.942;4.028;2023-04-03T01:52:58;23.67;;;14.98;;
21036;SDS011;10677;50.942;4.028;2023-04-03T01:55:24;26.20;;;16.10;;
21036;SDS011;10677;50.942;4.028;2023-04-03T01:57:49;23.20;;;14.68;;
21036;SDS011;10677;50.942;4.028;2023-04-03T02:00:15;22.15;;;14.93;;
21036;SDS011;10677;50.942;4.028;2023-04-03T02:02:41;27.10;;;15.32;;
21036;SDS011;10677;50.942;4.028;2023-04-03T02:05:07;27.58;;;15.05;;
21036;SDS011;10677;50.942;4.028;2023-04-03T02:07:33;23.85;;;14.98;;
21036;SDS011;10677;50.942;4.028;2023-04-03T02:09:58;24.60;;;14.45;;
21036;SDS011;10677;50.942;4.028;2023-04-03T02:12:24;22.13;;;14.50;;
21036;SDS011;10677;50.942;4.028;2023-04-03T02:14:50;24.38;;;14.93;;
21036;SDS011;10677;50.942;4.028;2023-04-03T02:17:15;23.63;;;13.85;;
21036;SDS011;10677;50.942;4.028;2023-04-03T02:19:41;21.40;;;13.40;;
21036;SDS011;10677;50.942;4.028;2023-04-03T02:22:07;22.08;;;14.05;;
21036;SDS011;10677;50.942;4.028;2023-04-03T02:24:32;22.50;;;13.23;;
21036;SDS011;10677;50.942;4.028;2023-04-03T02:26:58;23.58;;;12.60;;
21036;SDS011;10677;50.942;4.028;2023-04-03T02:29:24;22.67;;;14.02;;
21036;SDS011;10677;50.942;4.028;2023-04-03T02:31:50;20.77;;;12.55;;
21036;SDS011;10677;50.942;4.028;2023-04-03T02:34:16;21.45;;;12.98;;
21036;SDS011;10677;50.942;4.028;2023-04-03T02:36:42;21.70;;;12.75;;
21036;SDS011;10677;50.942;4.028;2023-04-03T02:39:07;18.75;;;12.60;;
21036;SDS011;10677;50.942;4.028;2023-04-03T02:41:33;20.95;;;12.82;;
21036;SDS011;10677;50.942;4.028;2023-04-03T02:44:02;17.65;;;11.55;;
21036;SDS011;10677;50.942;4.028;2023-04-03T02:46:30;20.35;;;12.20;;
21036;SDS011;10677;50.942;4.028;2023-04-03T02:48:55;19.25;;;10.52;;
21036;SDS011;10677;50.942;4.028;2023-04-03T02:51:21;17.13;;;10.40;;
21036;SDS011;10677;50.942;4.028;2023-04-03T02:53:48;18.90;;;10.30;;
21036;SDS011;10677;50.942;4.028;2023-04-03T02:56:14;19.10;;;10.88;;
21036;SDS011;10677;50.942;4.028;2023-04-03T02:58:39;19.00;;;10.52;;
21036;SDS011;10677;50.942;4.028;2023-04-03T03:01:05;19.75;;;10.25;;
21036;SDS011;10677;50.942;4.028;2023-04-03T03:03:31;16.02;;;9.77;;
21036;SDS011;10677;50.942;4.028;2023-04-03T03:06:03;14.80;;;10.13;;
21036;SDS011;10677;50.942;4.028;2023-04-03T03:08:31;17.10;;;9.35;;
21036;SDS011;10677;50.942;4.028;2023-04-03T03:10:56;16.83;;;10.10;;
21036;SDS011;10677;50.942;4.028;2023-04-03T03:13:22;18.05;;;10.32;;
21036;SDS011;10677;50.942;4.028;2023-04-03T03:15:48;17.48;;;10.02;;
21036;SDS011;10677;50.942;4.028;2023-04-03T03:18:13;15.25;;;9.18;;
21036;SDS011;10677;50.942;4.028;2023-04-03T03:20:39;15.82;;;9.65;;
21036;SDS011;10677;50.942;4.028;2023-04-03T03:23:05;15.05;;;10.05;;
21036;SDS011;10677;50.942;4.028;2023-04-03T03:25:31;15.60;;;9.57;;
21036;SDS011;10677;50.942;4.028;2023-04-03T03:27:56;17.65;;;10.15;;
21036;SDS011;10677;50.942;4.028;2023-04-03T03:30:22;16.20;;;9.90;;
21036;SDS011;10677;50.942;4.028;2023-04-03T03:32:47;17.63;;;9.75;;
21036;SDS011;10677;50.942;4.028;2023-04-03T03:35:13;16.65;;;9.30;;
21036;SDS011;10677;50.942;4.028;2023-04-03T03:37:39;15.43;;;9.45;;
21036;SDS011;10677;50.942;4.028;2023-04-03T03:40:05;17.45;;;10.45;;
21036;SDS011;10677;50.942;4.028;2023-04-03T03:42:31;17.10;;;10.05;;
21036;SDS011;10677;50.942;4.028;2023-04-03T03:44:56;17.13;;;10.23;;
21036;SDS011;10677;50.942;4.028;2023-04-03T03:47:22;15.10;;;9.93;;
21036;SDS011;10677;50.942;4.028;2023-04-03T03:49:48;18.85;;;9.95;;
21036;SDS011;10677;50.942;4.028;2023-04-03T03:52:13;18.55;;;10.45;;
21036;SDS011;10677;50.942;4.028;2023-04-03T03:54:39;15.20;;;10.10;;
21036;SDS011;10677;50.942;4.028;2023-04-03T03:57:05;16.98;;;9.50;;
21036;SDS011;10677;50.942;4.028;2023-04-03T03:59:30;16.90;;;10.63;;
21036;SDS011;10677;50.942;4.028;2023-04-03T04:01:56;17.42;;;10.32;;
21036;SDS011;10677;50.942;4.028;2023-04-03T04:04:22;15.13;;;9.30;;
21036;SDS011;10677;50.942;4.028;2023-04-03T04:06:47;24.45;;;9.98;;
21036;SDS011;10677;50.942;4.028;2023-04-03T04:09:13;16.33;;;9.80;;
21036;SDS011;10677;50.942;4.028;2023-04-03T04:11:39;16.00;;;10.40;;
21036;SDS011;10677;50.942;4.028;2023-04-03T04:14:05;17.83;;;10.70;;
21036;SDS011;10677;50.942;4.028;2023-04-03T04:16:31;18.63;;;10.65;;
21036;SDS011;10677;50.942;4.028;2023-04-03T04:18:57;16.00;;;10.27;;
21036;SDS011;10677;50.942;4.028;2023-04-03T04:21:22;19.38;;;10.50;;
21036;SDS011;10677;50.942;4.028;2023-04-03T04:23:48;20.50;;;10.82;;
21036;SDS011;10677;50.942;4.028;2023-04-03T04:26:14;18.23;;;10.43;;
21036;SDS011;10677;50.942;4.028;2023-04-03T04:28:39;19.48;;;10.93;;
21036;SDS011;10677;50.942;4.028;2023-04-03T04:31:05;16.05;;;11.38;;
21036;SDS011;10677;50.942;4.028;2023-04-03T04:33:31;20.73;;;10.25;;
21036;SDS011;10677;50.942;4.028;2023-04-03T04:35:56;20.60;;;12.00;;
21036;SDS011;10677;50.942;4.028;2023-04-03T04:38:22;17.52;;;11.18;;
21036;SDS011;10677;50.942;4.028;2023-04-03T04:40:48;16.88;;;10.52;;
21036;SDS011;10677;50.942;4.028;2023-04-03T04:43:14;16.90;;;11.05;;
21036;SDS011;10677;50.942;4.028;2023-04-03T04:45:40;16.27;;;11.43;;
21036;SDS011;10677;50.942;4.028;2023-04-03T04:48:06;17.10;;;11.00;;
21036;SDS011;10677;50.942;4.028;2023-04-03T04:50:32;22.45;;;11.75;;
21036;SDS011;10677;50.942;4.028;2023-04-03T04:52:58;15.82;;;10.77;;
21036;SDS011;10677;50.942;4.028;2023-04-03T04:55:23;19.15;;;11.88;;
21036;SDS011;10677;50.942;4.028;2023-04-03T04:57:49;15.98;;;10.50;;
21036;SDS011;10677;50.942;4.028;2023-04-03T05:00:15;22.33;;;11.50;;
21036;SDS011;10677;50.942;4.028;2023-04-03T05:02:41;20.38;;;12.65;;
21036;SDS011;10677;50.942;4.028;2023-04-03T05:05:07;21.60;;;12.43;;
21036;SDS011;10677;50.942;4.028;2023-04-03T05:07:33;19.27;;;12.00;;
21036;SDS011;10677;50.942;4.028;2023-04-03T05:10:00;22.48;;;12.35;;
21036;SDS011;10677;50.942;4.028;2023-04-03T05:12:27;23.30;;;13.25;;
21036;SDS011;10677;50.942;4.028;2023-04-03T05:14:53;20.67;;;13.52;;
21036;SDS011;10677;50.942;4.028;2023-04-03T05:17:19;20.52;;;12.85;;
21036;SDS011;10677;50.942;4.028;2023-04-03T05:19:45;21.40;;;12.25;;
21036;SDS011;10677;50.942;4.028;2023-04-03T05:22:11;22.17;;;12.05;;
21036;SDS011;10677;50.942;4.028;2023-04-03T05:24:36;20.67;;;12.30;;
21036;SDS011;10677;50.942;4.028;2023-04-03T05:27:02;18.63;;;12.05;;
21036;SDS011;10677;50.942;4.028;2023-04-03T05:29:28;21.67;;;12.27;;
21036;SDS011;10677;50.942;4.028;2023-04-03T05:31:54;20.30;;;12.20;;
21036;SDS011;10677;50.942;4.028;2023-04-03T05:34:20;27.85;;;13.55;;
21036;SDS011;10677;50.942;4.028;2023-04-03T05:36:46;20.65;;;12.65;;
21036;SDS011;10677;50.942;4.028;2023-04-03T05:39:12;21.90;;;11.60;;
21036;SDS011;10677;50.942;4.028;2023-04-03T05:41:38;21.92;;;12.05;;
21036;SDS011;10677;50.942;4.028;2023-04-03T05:44:03;20.60;;;13.30;;
21036;SDS011;10677;50.942;4.028;2023-04-03T05:46:32;23.08;;;12.45;;
21036;SDS011;10677;50.942;4.028;2023-04-03T05:48:58;23.65;;;13.30;;
21036;SDS011;10677;50.942;4.028;2023-04-03T05:51:24;22.55;;;12.52;;
21036;SDS011;10677;50.942;4.028;2023-04-03T05:53:55;22.20;;;13.02;;
21036;SDS011;10677;50.942;4.028;2023-04-03T05:56:26;20.10;;;12.38;;
21036;SDS011;10677;50.942;4.028;2023-04-03T05:58:51;21.20;;;11.88;;
21036;SDS011;10677;50.942;4.028;2023-04-03T06:01:17;19.02;;;13.18;;
21036;SDS011;10677;50.942;4.028;2023-04-03T06:03:42;22.85;;;14.15;;
21036;SDS011;10677;50.942;4.028;2023-04-03T06:06:10;21.42;;;13.65;;
21036;SDS011;10677;50.942;4.028;2023-04-03T06:08:38;24.13;;;12.77;;
21036;SDS011;10677;50.942;4.028;2023-04-03T06:11:04;22.55;;;13.60;;
21036;SDS011;10677;50.942;4.028;2023-04-03T06:13:30;21.52;;;13.00;;
21036;SDS011;10677;50.942;4.028;2023-04-03T06:15:56;22.25;;;12.90;;
21036;SDS011;10677;50.942;4.028;2023-04-03T06:18:22;21.38;;;11.85;;
21036;SDS011;10677;50.942;4.028;2023-04-03T06:20:48;21.55;;;13.27;;
21036;SDS011;10677;50.942;4.028;2023-04-03T06:23:13;19.80;;;12.60;;
21036;SDS011;10677;50.942;4.028;2023-04-03T06:25:39;21.08;;;13.02;;
21036;SDS011;10677;50.942;4.028;2023-04-03T06:28:05;20.55;;;12.77;;
21036;SDS011;10677;50.942;4.028;2023-04-03T06:30:34;23.92;;;13.77;;
21036;SDS011;10677;50.942;4.028;2023-04-03T06:33:02;24.48;;;15.13;;
21036;SDS011;10677;50.942;4.028;2023-04-03T06:35:28;24.80;;;14.80;;
21036;SDS011;10677;50.942;4.028;2023-04-03T06:37:55;24.40;;;13.68;;
21036;SDS011;10677;50.942;4.028;2023-04-03T06:40:22;22.55;;;13.38;;
21036;SDS011;10677;50.942;4.028;2023-04-03T06:42:50;21.40;;;13.48;;
21036;SDS011;10677;50.942;4.028;2023-04-03T06:45:16;23.27;;;13.27;;
21036;SDS011;10677;50.942;4.028;2023-04-03T06:47:43;18.40;;;12.18;;
21036;SDS011;10677;50.942;4.028;2023-04-03T06:50:10;17.35;;;12.10;;
21036;SDS011;10677;50.942;4.028;2023-04-03T06:52:38;15.27;;;11.35;;
21036;SDS011;10677;50.942;4.028;2023-04-03T06:55:04;17.40;;;11.77;;
21036;SDS011;10677;50.942;4.028;2023-04-03T06:57:30;17.35;;;11.25;;
21036;SDS011;10677;50.942;4.028;2023-04-03T06:59:56;20.13;;;12.40;;
21036;SDS011;10677;50.942;4.028;2023-04-03T07:02:22;17.73;;;11.80;;
21036;SDS011;10677;50.942;4.028;2023-04-03T07:04:48;16.42;;;10.45;;
21036;SDS011;10677;50.942;4.028;2023-04-03T07:07:15;19.63;;;10.75;;
21036;SDS011;10677;50.942;4.028;2023-04-03T07:09:42;16.90;;;10.63;;
21036;SDS011;10677;50.942;4.028;2023-04-03T07:12:08;13.45;;;10.52;;
21036;SDS011;10677;50.942;4.028;2023-04-03T07:14:33;18.48;;;11.43;;
21036;SDS011;10677;50.942;4.028;2023-04-03T07:16:59;17.35;;;11.05;;
21036;SDS011;10677;50.942;4.028;2023-04-03T07:19:25;16.08;;;11.60;;
21036;SDS011;10677;50.942;4.028;2023-04-03T07:21:53;18.67;;;11.15;;
21036;SDS011;10677;50.942;4.028;2023-04-03T07:24:18;16.77;;;10.63;;
21036;SDS011;10677;50.942;4.028;2023-04-03T07:26:44;16.25;;;10.90;;
21036;SDS011;10677;50.942;4.028;2023-04-03T07:29:13;14.82;;;11.02;;
21036;SDS011;10677;50.942;4.028;2023-04-03T07:31:39;16.60;;;10.85;;
21036;SDS011;10677;50.942;4.028;2023-04-03T07:34:06;18.30;;;10.98;;
21036;SDS011;10677;50.942;4.028;2023-04-03T07:36:32;16.45;;;10.30;;
21036;SDS011;10677;50.942;4.028;2023-04-03T07:38:58;19.45;;;11.73;;
21036;SDS011;10677;50.942;4.028;2023-04-03T07:41:24;15.70;;;9.88;;
21036;SDS011;10677;50.942;4.028;2023-04-03T07:43:49;17.13;;;10.00;;
21036;SDS011;10677;50.942;4.028;2023-04-03T07:46:15;16.25;;;10.15;;
21036;SDS011;10677;50.942;4.028;2023-04-03T07:48:42;14.80;;;8.65;;
21036;SDS011;10677;50.942;4.028;2023-04-03T07:51:09;11.95;;;8.65;;
21036;SDS011;10677;50.942;4.028;2023-04-03T07:53:35;14.27;;;9.18;;
21036;SDS011;10677;50.942;4.028;2023-04-03T07:56:01;17.52;;;9.68;;
21036;SDS011;10677;50.942;4.028;2023-04-03T07:58:28;14.38;;;8.48;;
21036;SDS011;10677;50.942;4.028;2023-04-03T08:00:54;11.32;;;8.50;;
21036;SDS011;10677;50.942;4.028;2023-04-03T08:03:19;15.52;;;8.02;;
21036;SDS011;10677;50.942;4.028;2023-04-03T08:05:46;11.50;;;7.53;;
21036;SDS011;10677;50.942;4.028;2023-04-03T08:08:14;12.40;;;7.25;;
21036;SDS011;10677;50.942;4.028;2023-04-03T08:10:41;12.32;;;7.57;;
21036;SDS011;10677;50.942;4.028;2023-04-03T08:13:07;12.00;;;6.97;;
21036;SDS011;10677;50.942;4.028;2023-04-03T08:15:34;11.63;;;7.15;;
21036;SDS011;10677;50.942;4.028;2023-04-03T08:18:00;13.40;;;6.50;;
21036;SDS011;10677;50.942;4.028;2023-04-03T08:20:26;12.77;;;5.93;;
21036;SDS011;10677;50.942;4.028;2023-04-03T08:22:53;10.93;;;6.53;;
21036;SDS011;10677;50.942;4.028;2023-04-03T08:25:19;9.80;;;6.70;;
21036;SDS011;10677;50.942;4.028;2023-04-03T08:27:45;9.07;;;6.22;;
21036;SDS011;10677;50.942;4.028;2023-04-03T08:30:11;12.50;;;7.18;;
21036;SDS011;10677;50.942;4.028;2023-04-03T08:32:37;11.18;;;5.97;;
21036;SDS011;10677;50.942;4.028;2023-04-03T08:35:04;10.05;;;6.20;;
21036;SDS011;10677;50.942;4.028;2023-04-03T08:37:30;11.27;;;6.55;;
21036;SDS011;10677;50.942;4.028;2023-04-03T08:39:56;10.85;;;6.22;;
21036;SDS011;10677;50.942;4.028;2023-04-03T08:42:34;8.93;;;5.57;;
21036;SDS011;10677;50.942;4.028;2023-04-03T08:48:05;11.38;;;5.63;;
21036;SDS011;10677;50.942;4.028;2023-04-03T08:50:41;10.93;;;5.68;;
21036;SDS011;10677;50.942;4.028;2023-04-03T08:53:15;14.07;;;6.15;;
21036;SDS011;10677;50.942;4.028;2023-04-03T08:55:48;6.90;;;4.55;;
21036;SDS011;10677;50.942;4.028;2023-04-03T08:58:20;10.27;;;5.43;;
21036;SDS011;10677;50.942;4.028;2023-04-03T09:00:48;9.65;;;5.75;;
21036;SDS011;10677;50.942;4.028;2023-04-03T09:03:18;12.18;;;6.18;;
21036;SDS011;10677;50.942;4.028;2023-04-03T09:08:34;10.02;;;5.88;;
21036;SDS011;10677;50.942;4.028;2023-04-03T09:17:20;7.95;;;4.72;;
21036;SDS011;10677;50.942;4.028;2023-04-03T09:25:43;7.63;;;4.25;;
21036;SDS011;10677;50.942;4.028;2023-04-03T09:28:09;7.53;;;3.42;;
21036;SDS011;10677;50.942;4.028;2023-04-03T09:30:35;7.50;;;3.72;;
21036;SDS011;10677;50.942;4.028;2023-04-03T09:33:02;8.18;;;3.17;;
21036;SDS011;10677;50.942;4.028;2023-04-03T09:35:30;5.97;;;3.20;;
21036;SDS011;10677;50.942;4.028;2023-04-03T09:40:37;5.90;;;3.35;;
21036;SDS011;10677;50.942;4.028;2023-04-03T09:46:17;8.38;;;2.80;;
21036;SDS011;10677;50.942;4.028;2023-04-03T09:48:57;8.60;;;3.15;;
21036;SDS011;10677;50.942;4.028;2023-04-03T09:51:26;8.73;;;2.95;;
21036;SDS011;10677;50.942;4.028;2023-04-03T09:53:53;9.02;;;3.08;;
21036;SDS011;10677;50.942;4.028;2023-04-03T09:56:24;9.52;;;3.40;;
21036;SDS011;10677;50.942;4.028;2023-04-03T10:04:10;5.88;;;2.65;;
21036;SDS011;10677;50.942;4.028;2023-04-03T10:06:39;8.10;;;2.63;;
21036;SDS011;10677;50.942;4.028;2023-04-03T10:09:20;9.40;;;2.72;;
21036;SDS011;10677;50.942;4.028;2023-04-03T10:11:57;7.82;;;2.78;;
21036;SDS011;10677;50.942;4.028;2023-04-03T10:20:02;6.28;;;2.33;;
21036;SDS011;10677;50.942;4.028;2023-04-03T10:25:31;4.72;;;2.35;;
21036;SDS011;10677;50.942;4.028;2023-04-03T10:28:20;6.93;;;2.70;;
21036;SDS011;10677;50.942;4.028;2023-04-03T10:45:29;6.68;;;2.10;;
21036;SDS011;10677;50.942;4.028;2023-04-03T11:04:44;4.88;;;2.17;;
21036;SDS011;10677;50.942;4.028;2023-04-03T11:07:15;8.38;;;1.75;;
21036;SDS011;10677;50.942;4.028;2023-04-03T11:09:48;3.83;;;1.73;;
21036;SDS011;10677;50.942;4.028;2023-04-03T11:14:46;6.95;;;1.90;;
21036;SDS011;10677;50.942;4.028;2023-04-03T11:20:00;11.95;;;1.67;;
21036;SDS011;10677;50.942;4.028;2023-04-03T11:22:28;5.88;;;1.73;;
21036;SDS011;10677;50.942;4.028;2023-04-03T11:27:45;4.50;;;1.83;;
21036;SDS011;10677;50.942;4.028;2023-04-03T11:30:28;6.80;;;1.48;;
21036;SDS011;10677;50.942;4.028;2023-04-03T11:33:34;5.15;;;1.30;;
21036;SDS011;10677;50.942;4.028;2023-04-03T11:38:43;5.13;;;1.35;;
21036;SDS011;10677;50.942;4.028;2023-04-03T11:41:11;4.40;;;1.23;;
21036;SDS011;10677;50.942;4.028;2023-04-03T11:46:49;5.82;;;1.60;;
21036;SDS011;10677;50.942;4.028;2023-04-03T12:05:50;4.22;;;1.40;;
21036;SDS011;10677;50.942;4.028;2023-04-03T12:13:41;4.53;;;1.48;;
21036;SDS011;10677;50.942;4.028;2023-04-03T12:16:26;3.83;;;1.20;;
21036;SDS011;10677;50.942;4.028;2023-04-03T12:24:33;2.63;;;1.00;;
21036;SDS011;10677;50.942;4.028;2023-04-03T12:38:17;5.10;;;1.40;;
21036;SDS011;10677;50.942;4.028;2023-04-03T12:46:21;3.33;;;1.33;;
21036;SDS011;10677;50.942;4.028;2023-04-03T12:51:19;4.63;;;1.85;;
21036;SDS011;10677;50.942;4.028;2023-04-03T12:53:51;5.38;;;1.33;;
21036;SDS011;10677;50.942;4.028;2023-04-03T12:56:26;3.13;;;1.05;;
21036;SDS011;10677;50.942;4.028;2023-04-03T12:58:55;5.13;;;1.10;;
21036;SDS011;10677;50.942;4.028;2023-04-03T13:01:37;7.80;;;1.75;;
21036;SDS011;10677;50.942;4.028;2023-04-03T13:04:03;3.92;;;1.08;;
21036;SDS011;10677;50.942;4.028;2023-04-03T13:06:48;6.15;;;1.08;;
21036;SDS011;10677;50.942;4.028;2023-04-03T13:09:23;4.07;;;1.02;;
21036;SDS011;10677;50.942;4.028;2023-04-03T13:12:14;5.40;;;1.27;;
21036;SDS011;10677;50.942;4.028;2023-04-03T13:14:39;3.88;;;1.13;;
21036;SDS011;10677;50.942;4.028;2023-04-03T13:17:17;3.38;;;1.13;;
21036;SDS011;10677;50.942;4.028;2023-04-03T13:19:43;3.38;;;1.10;;
21036;SDS011;10677;50.942;4.028;2023-04-03T13:25:20;5.35;;;1.00;;
21036;SDS011;10677;50.942;4.028;2023-04-03T13:27:48;3.78;;;0.77;;
21036;SDS011;10677;50.942;4.028;2023-04-03T13:30:17;4.32;;;0.90;;
21036;SDS011;10677;50.942;4.028;2023-04-03T13:32:51;3.47;;;1.00;;
21036;SDS011;10677;50.942;4.028;2023-04-03T13:38:27;3.22;;;1.00;;
21036;SDS011;10677;50.942;4.028;2023-04-03T13:40:58;2.65;;;0.95;;
21036;SDS011;10677;50.942;4.028;2023-04-03T13:43:33;5.65;;;1.30;;
21036;SDS011;10677;50.942;4.028;2023-04-03T13:46:19;3.78;;;1.10;;
21036;SDS011;10677;50.942;4.028;2023-04-03T13:48:49;3.00;;;0.98;;
21036;SDS011;10677;50.942;4.028;2023-04-03T13:56:37;2.35;;;0.80;;
21036;SDS011;10677;50.942;4.028;2023-04-03T13:59:05;5.05;;;1.15;;
21036;SDS011;10677;50.942;4.028;2023-04-03T14:04:59;4.10;;;0.93;;
21036;SDS011;10677;50.942;4.028;2023-04-03T14:07:02;3.17;;;1.08;;
21036;SDS011;10677;50.942;4.028;2023-04-03T14:09:28;2.60;;;1.17;;
21036;SDS011;10677;50.942;4.028;2023-04-03T14:12:00;3.47;;;1.20;;
21036;SDS011;10677;50.942;4.028;2023-04-03T14:14:32;1.42;;;0.82;;
21036;SDS011;10677;50.942;4.028;2023-04-03T14:17:00;3.10;;;1.10;;
21036;SDS011;10677;50.942;4.028;2023-04-03T14:19:29;5.05;;;1.25;;
21036;SDS011;10677;50.942;4.028;2023-04-03T14:21:57;2.63;;;1.13;;
21036;SDS011;10677;50.942;4.028;2023-04-03T14:24:24;2.55;;;1.00;;
21036;SDS011;10677;50.942;4.028;2023-04-03T14:26:52;3.10;;;0.98;;
21036;SDS011;10677;50.942;4.028;2023-04-03T14:29:19;2.75;;;1.10;;
21036;SDS011;10677;50.942;4.028;2023-04-03T14:31:46;6.35;;;1.35;;
21036;SDS011;10677;50.942;4.028;2023-04-03T14:34:14;3.63;;;1.20;;
21036;SDS011;10677;50.942;4.028;2023-04-03T14:36:41;3.55;;;1.17;;
21036;SDS011;10677;50.942;4.028;2023-04-03T14:39:10;2.97;;;1.15;;
21036;SDS011;10677;50.942;4.028;2023-04-03T14:41:41;7.43;;;1.20;;
21036;SDS011;10677;50.942;4.028;2023-04-03T14:44:08;8.32;;;1.65;;
21036;SDS011;10677;50.942;4.028;2023-04-03T14:46:35;5.03;;;0.95;;
21036;SDS011;10677;50.942;4.028;2023-04-03T14:49:03;4.97;;;1.63;;
21036;SDS011;10677;50.942;4.028;2023-04-03T14:51:37;5.80;;;1.60;;
21036;SDS011;10677;50.942;4.028;2023-04-03T14:54:03;2.83;;;1.15;;
21036;SDS011;10677;50.942;4.028;2023-04-03T14:56:30;3.90;;;1.55;;
21036;SDS011;10677;50.942;4.028;2023-04-03T14:58:57;4.07;;;1.30;;
21036;SDS011;10677;50.942;4.028;2023-04-03T15:01:24;4.80;;;1.30;;
21036;SDS011;10677;50.942;4.028;2023-04-03T15:03:51;5.22;;;1.50;;
21036;SDS011;10677;50.942;4.028;2023-04-03T15:06:17;4.13;;;1.50;;
21036;SDS011;10677;50.942;4.028;2023-04-03T15:08:43;4.70;;;1.40;;
21036;SDS011;10677;50.942;4.028;2023-04-03T15:11:10;5.65;;;1.30;;
21036;SDS011;10677;50.942;4.028;2023-04-03T15:13:36;5.50;;;1.42;;
21036;SDS011;10677;50.942;4.028;2023-04-03T15:16:03;4.20;;;1.33;;
21036;SDS011;10677;50.942;4.028;2023-04-03T15:18:31;2.85;;;1.10;;
21036;SDS011;10677;50.942;4.028;2023-04-03T15:21:02;4.80;;;1.27;;
21036;SDS011;10677;50.942;4.028;2023-04-03T15:23:28;5.30;;;1.40;;
21036;SDS011;10677;50.942;4.028;2023-04-03T15:25:55;5.03;;;1.40;;
21036;SDS011;10677;50.942;4.028;2023-04-03T15:28:23;4.88;;;1.33;;
21036;SDS011;10677;50.942;4.028;2023-04-03T15:30:55;4.47;;;1.23;;
21036;SDS011;10677;50.942;4.028;2023-04-03T15:33:21;3.72;;;1.00;;
21036;SDS011;10677;50.942;4.028;2023-04-03T15:35:47;4.88;;;1.50;;
21036;SDS011;10677;50.942;4.028;2023-04-03T15:38:13;3.42;;;1.17;;
21036;SDS011;10677;50.942;4.028;2023-04-03T15:40:39;5.05;;;1.10;;
21036;SDS011;10677;50.942;4.028;2023-04-03T15:43:06;4.35;;;1.00;;
21036;SDS011;10677;50.942;4.028;2023-04-03T15:45:32;4.60;;;0.93;;
21036;SDS011;10677;50.942;4.028;2023-04-03T15:48:00;3.72;;;1.02;;
21036;SDS011;10677;50.942;4.028;2023-04-03T15:50:26;2.55;;;0.93;;
21036;SDS011;10677;50.942;4.028;2023-04-03T15:52:53;3.50;;;0.93;;
21036;SDS011;10677;50.942;4.028;2023-04-03T15:55:26;4.95;;;1.00;;
21036;SDS011;10677;50.942;4.028;2023-04-03T15:57:53;4.20;;;1.10;;
21036;SDS011;10677;50.942;4.028;2023-04-03T16:00:19;3.00;;;1.00;;
21036;SDS011;10677;50.942;4.028;2023-04-03T16:02:47;3.17;;;1.13;;
21036;SDS011;10677;50.942;4.028;2023-04-03T16:05:15;5.35;;;1.13;;
21036;SDS011;10677;50.942;4.028;2023-04-03T16:07:43;11.57;;;1.55;;
21036;SDS011;10677;50.942;4.028;2023-04-03T16:10:10;3.00;;;0.90;;
21036;SDS011;10677;50.942;4.028;2023-04-03T16:12:36;3.13;;;1.10;;
21036;SDS011;10677;50.942;4.028;2023-04-03T16:15:02;3.63;;;1.08;;
21036;SDS011;10677;50.942;4.028;2023-04-03T16:17:29;3.10;;;1.00;;
21036;SDS011;10677;50.942;4.028;2023-04-03T16:19:57;4.13;;;1.00;;
21036;SDS011;10677;50.942;4.028;2023-04-03T16:22:24;4.57;;;1.08;;
21036;SDS011;10677;50.942;4.028;2023-04-03T16:24:51;2.42;;;0.80;;
21036;SDS011;10677;50.942;4.028;2023-04-03T16:27:17;2.33;;;1.08;;
21036;SDS011;10677;50.942;4.028;2023-04-03T16:29:43;2.72;;;0.90;;
21036;SDS011;10677;50.942;4.028;2023-04-03T16:32:08;3.60;;;1.10;;
21036;SDS011;10677;50.942;4.028;2023-04-03T16:34:34;3.88;;;1.10;;
21036;SDS011;10677;50.942;4.028;2023-04-03T16:37:00;5.38;;;1.20;;
21036;SDS011;10677;50.942;4.028;2023-04-03T16:39:27;4.13;;;1.10;;
21036;SDS011;10677;50.942;4.028;2023-04-03T16:41:53;3.75;;;0.93;;
21036;SDS011;10677;50.942;4.028;2023-04-03T16:44:20;4.03;;;1.27;;
21036;SDS011;10677;50.942;4.028;2023-04-03T16:46:45;5.10;;;1.08;;
21036;SDS011;10677;50.942;4.028;2023-04-03T16:49:11;3.67;;;1.00;;
21036;SDS011;10677;50.942;4.028;2023-04-03T16:51:37;2.72;;;0.95;;
21036;SDS011;10677;50.942;4.028;2023-04-03T16:54:03;2.97;;;1.10;;
21036;SDS011;10677;50.942;4.028;2023-04-03T16:56:28;4.07;;;1.13;;
21036;SDS011;10677;50.942;4.028;2023-04-03T16:58:54;4.72;;;1.13;;
21036;SDS011;10677;50.942;4.028;2023-04-03T17:01:21;3.55;;;1.20;;
21036;SDS011;10677;50.942;4.028;2023-04-03T17:03:47;3.55;;;1.00;;
21036;SDS011;10677;50.942;4.028;2023-04-03T17:06:15;5.28;;;1.42;;
21036;SDS011;10677;50.942;4.028;2023-04-03T17:08:43;12.02;;;1.95;;
21036;SDS011;10677;50.942;4.028;2023-04-03T17:11:10;3.50;;;1.02;;
21036;SDS011;10677;50.942;4.028;2023-04-03T17:13:36;3.92;;;1.63;;